Dati Storici

Data ora Umidita' aria (%) Temperatura aria (°C) Rad globale (W/m²) Gonioanemometro (°) Tacoanemometro (m/s) Pioggia (mm)
30-06-2020 01:30 77.7 % 22.037 -71.781 1.254 0 0
30-06-2020 01:20 78.3 % 22.085 -59.675 1.057 0 0
30-06-2020 01:10 78.8 % 22.107 -56.976 1.362 0 0
30-06-2020 01:00 79.7 % 22.158 -72.633 1.636 0 0
30-06-2020 00:50 80.9 % 22.18 -72.317 1.794 0 0
30-06-2020 00:40 82.2 % 22.19 -49.189 1.435 0 0
30-06-2020 00:30 83.2 % 22.284 -70.978 2.104 0 0
30-06-2020 00:20 83.7 % 22.366 -44.433 3.259 0 0
30-06-2020 00:10 83.8 % 22.472 -61.745 2.86 0 0
30-06-2020 00:00 83.1 % 22.625 -64.048 3.526 0 0
29-06-2020 23:50 82.1 % 22.763 -48.596 2.171 0 0
29-06-2020 23:40 81.1 % 22.901 -43.326 1.852 0 0
29-06-2020 23:30 79.9 % 23.081 -43.979 1.831 0 0
29-06-2020 23:20 79.2 % 23.214 -30.515 2.184 0 0
29-06-2020 23:10 79 % 23.3 -54.196 2.539 0 0
29-06-2020 23:00 79.8 % 23.29 -67.056 1.809 0 0
29-06-2020 22:50 80.8 % 23.157 -64.015 2.043 0 0
29-06-2020 22:40 82 % 23.022 4.755 1.82 0 0
29-06-2020 22:30 82.5 % 22.894 4.624 2.164 0 0
29-06-2020 22:20 82.5 % 22.812 -70.445 2.564 0 0

I dati sono presentati in modo automatico a scopo informativo. In seguito a verifica i dati possono subire modifiche o essere invalidati e non riportati negli archivi definitivi.